Salas De Los Infantes, Spain
Current Conditions -  °F | °C
As of 7:00 PM on Saturday 22 Nov 2014 (Local Time) from LEBG Reporting Station
Moderate Fog Moderate Fog  
Wind Chill: 44°   Ceiling: 200
Heat Index: 48°   Visibility: 0.28mi
Dew Point: 48°   Wind: 9mph
Humidity: 100%   Direction: 50°NE
Pressure: 29.91"   Gusts: NA
Location:  42.02°N, 3.29°W
Report Text: LEBG 221800Z 05008KT 0450 R22/1100D FG VV002 09/09 Q1013
Loading
Personal Weather Stations






























Interactive Weather Map New forecast layout! Learn more

10-Day Weather Forecast

Advertisements
Track Severe Weather on mobile